sensor_id;sensor_type;location;lat;lon;timestamp;P1;durP1;ratioP1;P2;durP2;ratioP2
8066;SDS011;4076;48.076;9.118;2023-03-23T00:00:47;4.47;;;2.50;;
8066;SDS011;4076;48.076;9.118;2023-03-23T00:03:12;5.63;;;3.40;;
8066;SDS011;4076;48.076;9.118;2023-03-23T00:05:38;4.23;;;2.63;;
8066;SDS011;4076;48.076;9.118;2023-03-23T00:08:06;4.13;;;2.97;;
8066;SDS011;4076;48.076;9.118;2023-03-23T00:10:34;6.33;;;2.83;;
8066;SDS011;4076;48.076;9.118;2023-03-23T00:13:00;4.70;;;2.30;;
8066;SDS011;4076;48.076;9.118;2023-03-23T00:15:29;4.30;;;2.27;;
8066;SDS011;4076;48.076;9.118;2023-03-23T00:17:58;3.57;;;2.07;;
8066;SDS011;4076;48.076;9.118;2023-03-23T00:20:28;5.50;;;3.40;;
8066;SDS011;4076;48.076;9.118;2023-03-23T00:23:05;4.67;;;2.63;;
8066;SDS011;4076;48.076;9.118;2023-03-23T00:25:32;4.33;;;2.40;;
8066;SDS011;4076;48.076;9.118;2023-03-23T00:27:57;4.50;;;2.50;;
8066;SDS011;4076;48.076;9.118;2023-03-23T00:30:23;5.37;;;2.40;;
8066;SDS011;4076;48.076;9.118;2023-03-23T00:32:48;5.00;;;2.90;;
8066;SDS011;4076;48.076;9.118;2023-03-23T00:35:15;4.53;;;2.50;;
8066;SDS011;4076;48.076;9.118;2023-03-23T00:37:42;5.07;;;2.60;;
8066;SDS011;4076;48.076;9.118;2023-03-23T00:40:08;6.07;;;3.07;;
8066;SDS011;4076;48.076;9.118;2023-03-23T00:42:35;4.03;;;2.00;;
8066;SDS011;4076;48.076;9.118;2023-03-23T00:45:01;4.50;;;2.50;;
8066;SDS011;4076;48.076;9.118;2023-03-23T00:47:27;5.13;;;3.67;;
8066;SDS011;4076;48.076;9.118;2023-03-23T00:49:53;3.87;;;2.63;;
8066;SDS011;4076;48.076;9.118;2023-03-23T00:52:21;4.10;;;2.23;;
8066;SDS011;4076;48.076;9.118;2023-03-23T00:54:47;4.10;;;2.17;;
8066;SDS011;4076;48.076;9.118;2023-03-23T00:57:12;8.13;;;2.83;;
8066;SDS011;4076;48.076;9.118;2023-03-23T00:59:38;4.90;;;3.50;;
8066;SDS011;4076;48.076;9.118;2023-03-23T01:02:03;3.20;;;1.70;;
8066;SDS011;4076;48.076;9.118;2023-03-23T01:04:29;4.80;;;3.00;;
8066;SDS011;4076;48.076;9.118;2023-03-23T01:06:56;6.40;;;3.07;;
8066;SDS011;4076;48.076;9.118;2023-03-23T01:09:22;4.27;;;2.50;;
8066;SDS011;4076;48.076;9.118;2023-03-23T01:11:49;4.53;;;2.30;;
8066;SDS011;4076;48.076;9.118;2023-03-23T01:14:16;6.10;;;2.70;;
8066;SDS011;4076;48.076;9.118;2023-03-23T01:16:43;3.90;;;2.30;;
8066;SDS011;4076;48.076;9.118;2023-03-23T01:19:08;7.63;;;3.80;;
8066;SDS011;4076;48.076;9.118;2023-03-23T01:21:34;3.80;;;2.90;;
8066;SDS011;4076;48.076;9.118;2023-03-23T01:24:01;5.57;;;2.47;;
8066;SDS011;4076;48.076;9.118;2023-03-23T01:26:27;4.83;;;2.77;;
8066;SDS011;4076;48.076;9.118;2023-03-23T01:28:53;6.40;;;3.23;;
8066;SDS011;4076;48.076;9.118;2023-03-23T01:31:20;6.07;;;2.37;;
8066;SDS011;4076;48.076;9.118;2023-03-23T01:33:48;5.30;;;3.30;;
8066;SDS011;4076;48.076;9.118;2023-03-23T01:36:17;4.77;;;2.87;;
8066;SDS011;4076;48.076;9.118;2023-03-23T01:38:47;4.60;;;2.53;;
8066;SDS011;4076;48.076;9.118;2023-03-23T01:41:14;4.90;;;2.90;;
8066;SDS011;4076;48.076;9.118;2023-03-23T01:46:42;5.33;;;2.83;;
8066;SDS011;4076;48.076;9.118;2023-03-23T01:51:37;5.37;;;3.00;;
8066;SDS011;4076;48.076;9.118;2023-03-23T01:54:07;4.90;;;2.70;;
8066;SDS011;4076;48.076;9.118;2023-03-23T01:56:38;5.87;;;3.20;;
8066;SDS011;4076;48.076;9.118;2023-03-23T01:59:07;6.70;;;3.50;;
8066;SDS011;4076;48.076;9.118;2023-03-23T02:01:33;5.93;;;2.60;;
8066;SDS011;4076;48.076;9.118;2023-03-23T02:04:03;5.70;;;2.80;;
8066;SDS011;4076;48.076;9.118;2023-03-23T02:06:29;7.40;;;2.80;;
8066;SDS011;4076;48.076;9.118;2023-03-23T02:08:55;6.63;;;3.27;;
8066;SDS011;4076;48.076;9.118;2023-03-23T02:11:21;4.70;;;2.83;;
8066;SDS011;4076;48.076;9.118;2023-03-23T02:13:47;6.13;;;3.00;;
8066;SDS011;4076;48.076;9.118;2023-03-23T02:16:34;4.50;;;2.70;;
8066;SDS011;4076;48.076;9.118;2023-03-23T02:25:20;4.03;;;2.90;;
8066;SDS011;4076;48.076;9.118;2023-03-23T02:28:15;5.90;;;2.60;;
8066;SDS011;4076;48.076;9.118;2023-03-23T02:31:14;5.00;;;3.10;;
8066;SDS011;4076;48.076;9.118;2023-03-23T02:41:35;4.20;;;2.40;;
8066;SDS011;4076;48.076;9.118;2023-03-23T02:44:05;5.13;;;2.63;;
8066;SDS011;4076;48.076;9.118;2023-03-23T02:46:32;3.87;;;2.47;;
8066;SDS011;4076;48.076;9.118;2023-03-23T02:48:59;3.97;;;2.33;;
8066;SDS011;4076;48.076;9.118;2023-03-23T02:51:27;4.63;;;2.60;;
8066;SDS011;4076;48.076;9.118;2023-03-23T02:53:54;6.10;;;2.63;;
8066;SDS011;4076;48.076;9.118;2023-03-23T02:56:21;4.70;;;2.53;;
8066;SDS011;4076;48.076;9.118;2023-03-23T02:58:49;5.70;;;2.57;;
8066;SDS011;4076;48.076;9.118;2023-03-23T03:03:40;3.90;;;2.60;;
8066;SDS011;4076;48.076;9.118;2023-03-23T03:06:30;5.67;;;2.77;;
8066;SDS011;4076;48.076;9.118;2023-03-23T03:09:01;5.40;;;2.37;;
8066;SDS011;4076;48.076;9.118;2023-03-23T03:11:31;4.40;;;2.47;;
8066;SDS011;4076;48.076;9.118;2023-03-23T03:14:00;6.10;;;2.80;;
8066;SDS011;4076;48.076;9.118;2023-03-23T03:16:35;4.57;;;2.27;;
8066;SDS011;4076;48.076;9.118;2023-03-23T03:21:35;3.43;;;1.70;;
8066;SDS011;4076;48.076;9.118;2023-03-23T03:24:04;4.63;;;2.67;;
8066;SDS011;4076;48.076;9.118;2023-03-23T03:26:33;5.70;;;2.40;;
8066;SDS011;4076;48.076;9.118;2023-03-23T03:28:59;4.20;;;2.47;;
8066;SDS011;4076;48.076;9.118;2023-03-23T03:31:27;4.00;;;2.40;;
8066;SDS011;4076;48.076;9.118;2023-03-23T03:33:56;5.03;;;2.90;;
8066;SDS011;4076;48.076;9.118;2023-03-23T03:36:26;6.00;;;2.93;;
8066;SDS011;4076;48.076;9.118;2023-03-23T03:38:59;4.63;;;2.83;;
8066;SDS011;4076;48.076;9.118;2023-03-23T03:41:30;4.47;;;2.50;;
8066;SDS011;4076;48.076;9.118;2023-03-23T03:43:56;6.27;;;3.10;;
8066;SDS011;4076;48.076;9.118;2023-03-23T03:46:21;5.20;;;2.63;;
8066;SDS011;4076;48.076;9.118;2023-03-23T03:48:51;4.20;;;2.57;;
8066;SDS011;4076;48.076;9.118;2023-03-23T03:51:17;4.93;;;3.20;;
8066;SDS011;4076;48.076;9.118;2023-03-23T03:53:43;5.70;;;2.93;;
8066;SDS011;4076;48.076;9.118;2023-03-23T03:56:08;5.30;;;3.27;;
8066;SDS011;4076;48.076;9.118;2023-03-23T03:58:34;6.10;;;3.00;;
8066;SDS011;4076;48.076;9.118;2023-03-23T04:01:01;5.33;;;2.63;;
8066;SDS011;4076;48.076;9.118;2023-03-23T04:03:27;4.53;;;2.60;;
8066;SDS011;4076;48.076;9.118;2023-03-23T04:05:53;7.07;;;2.37;;
8066;SDS011;4076;48.076;9.118;2023-03-23T04:08:20;4.37;;;2.47;;
8066;SDS011;4076;48.076;9.118;2023-03-23T04:10:47;4.23;;;2.23;;
8066;SDS011;4076;48.076;9.118;2023-03-23T04:13:13;4.70;;;2.73;;
8066;SDS011;4076;48.076;9.118;2023-03-23T04:15:38;4.17;;;2.60;;
8066;SDS011;4076;48.076;9.118;2023-03-23T04:18:04;5.47;;;3.40;;
8066;SDS011;4076;48.076;9.118;2023-03-23T04:20:30;4.43;;;2.20;;
8066;SDS011;4076;48.076;9.118;2023-03-23T04:22:56;12.13;;;2.83;;
8066;SDS011;4076;48.076;9.118;2023-03-23T04:25:22;4.67;;;2.67;;
8066;SDS011;4076;48.076;9.118;2023-03-23T04:27:50;3.70;;;1.97;;
8066;SDS011;4076;48.076;9.118;2023-03-23T04:30:20;4.00;;;2.17;;
8066;SDS011;4076;48.076;9.118;2023-03-23T04:32:48;5.20;;;2.23;;
8066;SDS011;4076;48.076;9.118;2023-03-23T04:35:20;6.37;;;3.17;;
8066;SDS011;4076;48.076;9.118;2023-03-23T04:37:47;9.60;;;3.43;;
8066;SDS011;4076;48.076;9.118;2023-03-23T04:40:13;6.10;;;3.73;;
8066;SDS011;4076;48.076;9.118;2023-03-23T04:42:43;6.43;;;3.43;;
8066;SDS011;4076;48.076;9.118;2023-03-23T04:45:14;6.57;;;4.43;;
8066;SDS011;4076;48.076;9.118;2023-03-23T04:47:46;5.27;;;3.60;;
8066;SDS011;4076;48.076;9.118;2023-03-23T04:50:19;7.60;;;3.90;;
8066;SDS011;4076;48.076;9.118;2023-03-23T04:52:48;5.90;;;3.30;;
8066;SDS011;4076;48.076;9.118;2023-03-23T04:55:16;5.77;;;2.90;;
8066;SDS011;4076;48.076;9.118;2023-03-23T04:57:42;4.03;;;2.40;;
8066;SDS011;4076;48.076;9.118;2023-03-23T05:00:09;6.27;;;3.07;;
8066;SDS011;4076;48.076;9.118;2023-03-23T05:02:39;5.17;;;3.23;;
8066;SDS011;4076;48.076;9.118;2023-03-23T05:05:06;5.13;;;2.93;;
8066;SDS011;4076;48.076;9.118;2023-03-23T05:07:32;5.23;;;3.20;;
8066;SDS011;4076;48.076;9.118;2023-03-23T05:09:57;7.47;;;3.10;;
8066;SDS011;4076;48.076;9.118;2023-03-23T05:12:23;8.90;;;3.43;;
8066;SDS011;4076;48.076;9.118;2023-03-23T05:14:48;6.87;;;4.13;;
8066;SDS011;4076;48.076;9.118;2023-03-23T05:17:15;7.53;;;6.13;;
8066;SDS011;4076;48.076;9.118;2023-03-23T05:19:42;4.80;;;3.40;;
8066;SDS011;4076;48.076;9.118;2023-03-23T05:22:09;4.13;;;2.70;;
8066;SDS011;4076;48.076;9.118;2023-03-23T05:24:37;5.50;;;3.60;;
8066;SDS011;4076;48.076;9.118;2023-03-23T05:27:03;5.90;;;4.00;;
8066;SDS011;4076;48.076;9.118;2023-03-23T05:29:29;6.60;;;3.70;;
8066;SDS011;4076;48.076;9.118;2023-03-23T05:31:55;6.07;;;4.63;;
8066;SDS011;4076;48.076;9.118;2023-03-23T05:34:24;6.50;;;3.77;;
8066;SDS011;4076;48.076;9.118;2023-03-23T05:36:54;4.40;;;3.10;;
8066;SDS011;4076;48.076;9.118;2023-03-23T05:39:20;4.80;;;2.90;;
8066;SDS011;4076;48.076;9.118;2023-03-23T05:41:46;8.60;;;2.80;;
8066;SDS011;4076;48.076;9.118;2023-03-23T05:44:13;4.23;;;2.47;;
8066;SDS011;4076;48.076;9.118;2023-03-23T05:46:39;4.57;;;3.13;;
8066;SDS011;4076;48.076;9.118;2023-03-23T05:49:05;4.93;;;3.07;;
8066;SDS011;4076;48.076;9.118;2023-03-23T05:51:31;7.47;;;4.20;;
8066;SDS011;4076;48.076;9.118;2023-03-23T05:53:56;7.33;;;4.93;;
8066;SDS011;4076;48.076;9.118;2023-03-23T05:56:22;6.50;;;4.53;;
8066;SDS011;4076;48.076;9.118;2023-03-23T05:58:48;5.47;;;3.63;;
8066;SDS011;4076;48.076;9.118;2023-03-23T06:01:13;6.10;;;3.33;;
8066;SDS011;4076;48.076;9.118;2023-03-23T06:03:39;6.73;;;4.30;;
8066;SDS011;4076;48.076;9.118;2023-03-23T06:06:05;5.23;;;3.23;;
8066;SDS011;4076;48.076;9.118;2023-03-23T06:08:31;5.50;;;2.90;;
8066;SDS011;4076;48.076;9.118;2023-03-23T06:10:57;6.67;;;4.53;;
8066;SDS011;4076;48.076;9.118;2023-03-23T06:13:22;7.20;;;3.30;;
8066;SDS011;4076;48.076;9.118;2023-03-23T06:15:48;6.10;;;3.60;;
8066;SDS011;4076;48.076;9.118;2023-03-23T06:18:14;6.37;;;3.70;;
8066;SDS011;4076;48.076;9.118;2023-03-23T06:20:40;10.97;;;4.60;;
8066;SDS011;4076;48.076;9.118;2023-03-23T06:23:08;5.83;;;4.20;;
8066;SDS011;4076;48.076;9.118;2023-03-23T06:25:34;4.77;;;3.87;;
8066;SDS011;4076;48.076;9.118;2023-03-23T06:28:00;7.80;;;5.50;;
8066;SDS011;4076;48.076;9.118;2023-03-23T06:30:25;7.97;;;5.87;;
8066;SDS011;4076;48.076;9.118;2023-03-23T06:32:55;5.60;;;4.20;;
8066;SDS011;4076;48.076;9.118;2023-03-23T06:35:20;8.40;;;3.90;;
8066;SDS011;4076;48.076;9.118;2023-03-23T06:37:46;5.80;;;3.67;;
8066;SDS011;4076;48.076;9.118;2023-03-23T06:40:12;8.10;;;5.30;;
8066;SDS011;4076;48.076;9.118;2023-03-23T06:42:37;7.40;;;4.50;;
8066;SDS011;4076;48.076;9.118;2023-03-23T06:45:04;7.60;;;4.07;;
8066;SDS011;4076;48.076;9.118;2023-03-23T06:47:30;5.30;;;3.57;;
8066;SDS011;4076;48.076;9.118;2023-03-23T06:49:56;5.57;;;3.43;;
8066;SDS011;4076;48.076;9.118;2023-03-23T06:52:22;8.00;;;4.63;;
8066;SDS011;4076;48.076;9.118;2023-03-23T06:54:49;4.90;;;3.47;;
8066;SDS011;4076;48.076;9.118;2023-03-23T06:57:15;4.90;;;3.00;;
8066;SDS011;4076;48.076;9.118;2023-03-23T06:59:42;5.30;;;3.07;;
8066;SDS011;4076;48.076;9.118;2023-03-23T07:02:08;5.57;;;3.30;;
8066;SDS011;4076;48.076;9.118;2023-03-23T07:04:39;4.50;;;3.00;;
8066;SDS011;4076;48.076;9.118;2023-03-23T07:07:07;4.77;;;2.50;;
8066;SDS011;4076;48.076;9.118;2023-03-23T07:09:33;5.63;;;3.10;;
8066;SDS011;4076;48.076;9.118;2023-03-23T07:11:59;7.13;;;3.70;;
8066;SDS011;4076;48.076;9.118;2023-03-23T07:14:24;5.80;;;3.83;;
8066;SDS011;4076;48.076;9.118;2023-03-23T07:16:50;7.50;;;4.50;;
8066;SDS011;4076;48.076;9.118;2023-03-23T07:19:16;7.37;;;5.43;;
8066;SDS011;4076;48.076;9.118;2023-03-23T07:21:41;6.90;;;4.40;;
8066;SDS011;4076;48.076;9.118;2023-03-23T07:24:10;8.30;;;4.37;;
8066;SDS011;4076;48.076;9.118;2023-03-23T07:26:38;6.80;;;4.33;;
8066;SDS011;4076;48.076;9.118;2023-03-23T07:29:07;6.30;;;3.63;;
8066;SDS011;4076;48.076;9.118;2023-03-23T07:31:33;9.10;;;5.30;;
8066;SDS011;4076;48.076;9.118;2023-03-23T07:34:00;9.37;;;5.03;;
8066;SDS011;4076;48.076;9.118;2023-03-23T07:36:26;7.73;;;4.80;;
8066;SDS011;4076;48.076;9.118;2023-03-23T07:38:52;7.80;;;3.97;;
8066;SDS011;4076;48.076;9.118;2023-03-23T07:41:18;5.07;;;3.10;;
8066;SDS011;4076;48.076;9.118;2023-03-23T07:43:44;4.23;;;2.83;;
8066;SDS011;4076;48.076;9.118;2023-03-23T07:46:11;3.60;;;1.93;;
8066;SDS011;4076;48.076;9.118;2023-03-23T07:48:37;3.60;;;2.00;;
8066;SDS011;4076;48.076;9.118;2023-03-23T07:51:02;5.27;;;2.93;;
8066;SDS011;4076;48.076;9.118;2023-03-23T07:53:28;4.50;;;2.60;;
8066;SDS011;4076;48.076;9.118;2023-03-23T07:55:54;4.10;;;2.50;;
8066;SDS011;4076;48.076;9.118;2023-03-23T07:58:20;5.40;;;2.70;;
8066;SDS011;4076;48.076;9.118;2023-03-23T08:00:46;4.17;;;2.47;;
8066;SDS011;4076;48.076;9.118;2023-03-23T08:03:13;6.90;;;3.47;;
8066;SDS011;4076;48.076;9.118;2023-03-23T08:05:39;5.63;;;3.20;;
8066;SDS011;4076;48.076;9.118;2023-03-23T08:08:07;5.13;;;3.10;;
8066;SDS011;4076;48.076;9.118;2023-03-23T08:10:34;5.93;;;2.87;;
8066;SDS011;4076;48.076;9.118;2023-03-23T08:13:00;7.43;;;3.10;;
8066;SDS011;4076;48.076;9.118;2023-03-23T08:15:27;4.10;;;2.77;;
8066;SDS011;4076;48.076;9.118;2023-03-23T08:17:53;4.53;;;2.37;;
8066;SDS011;4076;48.076;9.118;2023-03-23T08:20:19;5.13;;;3.20;;
8066;SDS011;4076;48.076;9.118;2023-03-23T08:22:54;5.67;;;3.13;;
8066;SDS011;4076;48.076;9.118;2023-03-23T08:25:22;5.50;;;3.33;;
8066;SDS011;4076;48.076;9.118;2023-03-23T08:27:49;5.17;;;3.30;;
8066;SDS011;4076;48.076;9.118;2023-03-23T08:30:16;3.93;;;2.40;;
8066;SDS011;4076;48.076;9.118;2023-03-23T08:32:44;4.07;;;2.50;;
8066;SDS011;4076;48.076;9.118;2023-03-23T08:35:11;8.63;;;4.37;;
8066;SDS011;4076;48.076;9.118;2023-03-23T08:37:37;4.10;;;2.97;;
8066;SDS011;4076;48.076;9.118;2023-03-23T08:40:03;4.63;;;3.40;;
8066;SDS011;4076;48.076;9.118;2023-03-23T08:42:36;8.10;;;3.40;;
8066;SDS011;4076;48.076;9.118;2023-03-23T08:45:03;4.10;;;3.70;;
8066;SDS011;4076;48.076;9.118;2023-03-23T08:47:30;4.67;;;3.27;;
8066;SDS011;4076;48.076;9.118;2023-03-23T08:49:56;6.13;;;4.47;;
8066;SDS011;4076;48.076;9.118;2023-03-23T08:52:21;4.90;;;2.93;;
8066;SDS011;4076;48.076;9.118;2023-03-23T08:54:47;4.63;;;3.20;;
8066;SDS011;4076;48.076;9.118;2023-03-23T08:57:13;5.77;;;3.37;;
8066;SDS011;4076;48.076;9.118;2023-03-23T08:59:43;5.17;;;3.80;;
8066;SDS011;4076;48.076;9.118;2023-03-23T09:02:09;4.70;;;3.07;;
8066;SDS011;4076;48.076;9.118;2023-03-23T09:04:36;5.57;;;2.90;;
8066;SDS011;4076;48.076;9.118;2023-03-23T09:07:03;4.47;;;2.80;;
8066;SDS011;4076;48.076;9.118;2023-03-23T09:09:28;4.20;;;3.03;;
8066;SDS011;4076;48.076;9.118;2023-03-23T09:11:54;5.30;;;3.60;;
8066;SDS011;4076;48.076;9.118;2023-03-23T09:14:20;4.50;;;2.90;;
8066;SDS011;4076;48.076;9.118;2023-03-23T09:16:45;4.40;;;3.07;;
8066;SDS011;4076;48.076;9.118;2023-03-23T09:19:11;6.30;;;3.70;;
8066;SDS011;4076;48.076;9.118;2023-03-23T09:21:37;7.03;;;3.97;;
8066;SDS011;4076;48.076;9.118;2023-03-23T09:24:03;4.57;;;2.90;;
8066;SDS011;4076;48.076;9.118;2023-03-23T09:26:29;2.80;;;1.90;;
8066;SDS011;4076;48.076;9.118;2023-03-23T09:28:56;2.77;;;1.53;;
8066;SDS011;4076;48.076;9.118;2023-03-23T09:31:22;4.10;;;2.20;;
8066;SDS011;4076;48.076;9.118;2023-03-23T09:33:51;2.57;;;1.60;;
8066;SDS011;4076;48.076;9.118;2023-03-23T09:36:18;3.20;;;1.60;;
8066;SDS011;4076;48.076;9.118;2023-03-23T09:38:46;5.07;;;3.10;;
8066;SDS011;4076;48.076;9.118;2023-03-23T09:43:59;12.60;;;9.00;;
8066;SDS011;4076;48.076;9.118;2023-03-23T09:46:51;9.63;;;5.70;;
8066;SDS011;4076;48.076;9.118;2023-03-23T09:50:08;22.40;;;14.27;;
8066;SDS011;4076;48.076;9.118;2023-03-23T09:52:39;10.40;;;7.63;;
8066;SDS011;4076;48.076;9.118;2023-03-23T09:55:10;4.70;;;2.80;;
8066;SDS011;4076;48.076;9.118;2023-03-23T09:57:54;7.17;;;3.40;;
8066;SDS011;4076;48.076;9.118;2023-03-23T10:00:40;5.80;;;4.60;;
8066;SDS011;4076;48.076;9.118;2023-03-23T10:03:17;5.47;;;3.27;;
8066;SDS011;4076;48.076;9.118;2023-03-23T10:05:50;15.30;;;12.50;;
8066;SDS011;4076;48.076;9.118;2023-03-23T10:08:21;7.37;;;5.53;;
8066;SDS011;4076;48.076;9.118;2023-03-23T10:22:41;3.23;;;2.00;;
8066;SDS011;4076;48.076;9.118;2023-03-23T10:30:27;3.10;;;1.80;;
8066;SDS011;4076;48.076;9.118;2023-03-23T10:33:17;2.80;;;1.60;;
8066;SDS011;4076;48.076;9.118;2023-03-23T10:38:23;5.70;;;3.57;;
8066;SDS011;4076;48.076;9.118;2023-03-23T10:40:55;3.57;;;2.07;;
8066;SDS011;4076;48.076;9.118;2023-03-23T10:43:23;3.70;;;2.17;;
8066;SDS011;4076;48.076;9.118;2023-03-23T10:45:54;4.33;;;3.93;;
8066;SDS011;4076;48.076;9.118;2023-03-23T10:48:27;8.30;;;7.67;;
8066;SDS011;4076;48.076;9.118;2023-03-23T10:50:57;2.90;;;1.90;;
8066;SDS011;4076;48.076;9.118;2023-03-23T10:53:29;4.00;;;2.00;;
8066;SDS011;4076;48.076;9.118;2023-03-23T10:56:23;4.23;;;3.00;;
8066;SDS011;4076;48.076;9.118;2023-03-23T10:58:51;3.77;;;2.40;;
8066;SDS011;4076;48.076;9.118;2023-03-23T11:01:27;4.57;;;2.10;;
8066;SDS011;4076;48.076;9.118;2023-03-23T11:03:59;3.27;;;1.80;;
8066;SDS011;4076;48.076;9.118;2023-03-23T11:06:27;4.83;;;1.90;;
8066;SDS011;4076;48.076;9.118;2023-03-23T11:08:56;6.50;;;4.83;;
8066;SDS011;4076;48.076;9.118;2023-03-23T11:11:26;3.83;;;2.47;;
8066;SDS011;4076;48.076;9.118;2023-03-23T11:14:02;7.90;;;3.97;;
8066;SDS011;4076;48.076;9.118;2023-03-23T11:16:52;4.00;;;2.90;;
8066;SDS011;4076;48.076;9.118;2023-03-23T11:19:27;4.60;;;2.83;;
8066;SDS011;4076;48.076;9.118;2023-03-23T11:24:30;4.83;;;4.20;;
8066;SDS011;4076;48.076;9.118;2023-03-23T11:26:58;4.77;;;3.20;;
8066;SDS011;4076;48.076;9.118;2023-03-23T11:29:25;2.80;;;1.70;;
8066;SDS011;4076;48.076;9.118;2023-03-23T11:32:05;4.00;;;1.90;;
8066;SDS011;4076;48.076;9.118;2023-03-23T11:34:35;3.10;;;1.80;;
8066;SDS011;4076;48.076;9.118;2023-03-23T11:42:37;3.67;;;2.10;;
8066;SDS011;4076;48.076;9.118;2023-03-23T11:48:12;4.80;;;2.00;;
8066;SDS011;4076;48.076;9.118;2023-03-23T11:56:39;2.70;;;1.57;;
8066;SDS011;4076;48.076;9.118;2023-03-23T11:59:10;3.10;;;2.07;;
8066;SDS011;4076;48.076;9.118;2023-03-23T12:10:58;4.50;;;2.37;;
8066;SDS011;4076;48.076;9.118;2023-03-23T12:14:04;3.00;;;1.93;;
8066;SDS011;4076;48.076;9.118;2023-03-23T12:22:26;4.60;;;2.80;;
8066;SDS011;4076;48.076;9.118;2023-03-23T12:27:35;4.47;;;2.40;;
8066;SDS011;4076;48.076;9.118;2023-03-23T12:43:51;5.10;;;2.30;;
8066;SDS011;4076;48.076;9.118;2023-03-23T12:49:05;3.90;;;2.30;;
8066;SDS011;4076;48.076;9.118;2023-03-23T12:59:54;6.40;;;3.67;;
8066;SDS011;4076;48.076;9.118;2023-03-23T13:02:39;3.83;;;2.30;;
8066;SDS011;4076;48.076;9.118;2023-03-23T13:07:58;3.90;;;2.23;;
8066;SDS011;4076;48.076;9.118;2023-03-23T13:10:33;3.60;;;2.50;;
8066;SDS011;4076;48.076;9.118;2023-03-23T13:13:07;3.80;;;2.43;;
8066;SDS011;4076;48.076;9.118;2023-03-23T13:15:59;3.20;;;2.27;;
8066;SDS011;4076;48.076;9.118;2023-03-23T13:18:53;4.93;;;2.57;;
8066;SDS011;4076;48.076;9.118;2023-03-23T13:24:00;3.73;;;2.17;;
8066;SDS011;4076;48.076;9.118;2023-03-23T13:26:29;3.30;;;2.13;;
8066;SDS011;4076;48.076;9.118;2023-03-23T13:28:56;3.30;;;1.87;;
8066;SDS011;4076;48.076;9.118;2023-03-23T13:31:35;5.70;;;3.23;;
8066;SDS011;4076;48.076;9.118;2023-03-23T13:36:43;4.67;;;2.83;;
8066;SDS011;4076;48.076;9.118;2023-03-23T13:39:19;3.53;;;2.10;;
8066;SDS011;4076;48.076;9.118;2023-03-23T13:41:58;4.13;;;2.60;;
8066;SDS011;4076;48.076;9.118;2023-03-23T13:47:44;4.43;;;2.70;;
8066;SDS011;4076;48.076;9.118;2023-03-23T13:50:13;5.00;;;3.87;;
8066;SDS011;4076;48.076;9.118;2023-03-23T13:52:53;4.40;;;2.63;;
8066;SDS011;4076;48.076;9.118;2023-03-23T13:55:30;3.30;;;2.40;;
8066;SDS011;4076;48.076;9.118;2023-03-23T14:06:12;3.87;;;2.07;;
8066;SDS011;4076;48.076;9.118;2023-03-23T14:08:41;3.50;;;2.07;;
8066;SDS011;4076;48.076;9.118;2023-03-23T14:11:27;4.57;;;2.43;;
8066;SDS011;4076;48.076;9.118;2023-03-23T14:14:03;4.60;;;2.80;;
8066;SDS011;4076;48.076;9.118;2023-03-23T14:16:43;3.53;;;2.10;;
8066;SDS011;4076;48.076;9.118;2023-03-23T14:19:28;4.93;;;2.93;;
8066;SDS011;4076;48.076;9.118;2023-03-23T14:21:55;4.40;;;2.50;;
8066;SDS011;4076;48.076;9.118;2023-03-23T14:24:23;3.80;;;2.43;;
8066;SDS011;4076;48.076;9.118;2023-03-23T14:26:52;4.17;;;2.27;;
8066;SDS011;4076;48.076;9.118;2023-03-23T14:29:26;4.37;;;2.33;;
8066;SDS011;4076;48.076;9.118;2023-03-23T14:31:56;4.57;;;2.97;;
8066;SDS011;4076;48.076;9.118;2023-03-23T14:34:28;6.40;;;4.17;;
8066;SDS011;4076;48.076;9.118;2023-03-23T14:36:56;10.60;;;7.73;;
8066;SDS011;4076;48.076;9.118;2023-03-23T14:39:24;18.53;;;12.40;;
8066;SDS011;4076;48.076;9.118;2023-03-23T14:42:02;11.60;;;8.40;;
8066;SDS011;4076;48.076;9.118;2023-03-23T14:44:37;10.90;;;9.20;;
8066;SDS011;4076;48.076;9.118;2023-03-23T14:47:06;20.17;;;13.53;;
8066;SDS011;4076;48.076;9.118;2023-03-23T14:49:40;28.50;;;22.83;;
8066;SDS011;4076;48.076;9.118;2023-03-23T14:52:11;12.63;;;9.43;;
8066;SDS011;4076;48.076;9.118;2023-03-23T14:54:39;8.17;;;6.10;;
8066;SDS011;4076;48.076;9.118;2023-03-23T14:57:13;10.40;;;5.50;;
8066;SDS011;4076;48.076;9.118;2023-03-23T14:59:44;20.07;;;16.27;;
8066;SDS011;4076;48.076;9.118;2023-03-23T15:02:16;21.20;;;14.70;;
8066;SDS011;4076;48.076;9.118;2023-03-23T15:04:47;8.77;;;7.60;;
8066;SDS011;4076;48.076;9.118;2023-03-23T15:07:20;8.40;;;5.03;;
8066;SDS011;4076;48.076;9.118;2023-03-23T15:09:48;5.47;;;4.03;;
8066;SDS011;4076;48.076;9.118;2023-03-23T15:12:21;4.67;;;2.93;;
8066;SDS011;4076;48.076;9.118;2023-03-23T15:14:52;3.43;;;2.47;;
8066;SDS011;4076;48.076;9.118;2023-03-23T15:17:21;4.20;;;2.50;;
8066;SDS011;4076;48.076;9.118;2023-03-23T15:19:52;5.47;;;3.13;;
8066;SDS011;4076;48.076;9.118;2023-03-23T15:22:26;5.27;;;4.10;;
8066;SDS011;4076;48.076;9.118;2023-03-23T15:25:07;4.97;;;3.53;;
8066;SDS011;4076;48.076;9.118;2023-03-23T15:27:40;5.40;;;3.50;;
8066;SDS011;4076;48.076;9.118;2023-03-23T15:30:15;5.30;;;3.43;;
8066;SDS011;4076;48.076;9.118;2023-03-23T15:32:47;4.33;;;2.67;;
8066;SDS011;4076;48.076;9.118;2023-03-23T15:35:17;4.73;;;4.13;;
8066;SDS011;4076;48.076;9.118;2023-03-23T15:37:46;4.50;;;3.70;;
8066;SDS011;4076;48.076;9.118;2023-03-23T15:40:21;5.70;;;3.73;;
8066;SDS011;4076;48.076;9.118;2023-03-23T15:42:48;5.23;;;3.30;;
8066;SDS011;4076;48.076;9.118;2023-03-23T15:45:25;4.43;;;2.50;;
8066;SDS011;4076;48.076;9.118;2023-03-23T15:47:52;5.07;;;3.17;;
8066;SDS011;4076;48.076;9.118;2023-03-23T15:52:46;5.30;;;2.93;;
8066;SDS011;4076;48.076;9.118;2023-03-23T15:55:55;5.00;;;3.20;;
8066;SDS011;4076;48.076;9.118;2023-03-23T15:58:09;7.23;;;3.10;;
8066;SDS011;4076;48.076;9.118;2023-03-23T16:00:36;5.83;;;3.00;;
8066;SDS011;4076;48.076;9.118;2023-03-23T16:03:04;4.70;;;2.27;;
8066;SDS011;4076;48.076;9.118;2023-03-23T16:05:32;5.17;;;2.77;;
8066;SDS011;4076;48.076;9.118;2023-03-23T16:07:58;4.93;;;2.43;;
8066;SDS011;4076;48.076;9.118;2023-03-23T16:10:24;5.13;;;2.93;;
8066;SDS011;4076;48.076;9.118;2023-03-23T16:12:51;5.27;;;2.90;;
8066;SDS011;4076;48.076;9.118;2023-03-23T16:15:17;3.77;;;2.33;;
8066;SDS011;4076;48.076;9.118;2023-03-23T16:17:43;5.23;;;3.00;;
8066;SDS011;4076;48.076;9.118;2023-03-23T16:20:14;5.97;;;2.43;;
8066;SDS011;4076;48.076;9.118;2023-03-23T16:22:43;4.40;;;2.60;;
8066;SDS011;4076;48.076;9.118;2023-03-23T16:25:09;4.83;;;2.43;;
8066;SDS011;4076;48.076;9.118;2023-03-23T16:27:35;4.93;;;3.17;;
8066;SDS011;4076;48.076;9.118;2023-03-23T16:30:07;4.17;;;2.10;;
8066;SDS011;4076;48.076;9.118;2023-03-23T16:32:38;4.13;;;2.50;;
8066;SDS011;4076;48.076;9.118;2023-03-23T16:35:04;5.60;;;2.53;;
8066;SDS011;4076;48.076;9.118;2023-03-23T16:37:30;5.00;;;2.80;;
8066;SDS011;4076;48.076;9.118;2023-03-23T16:39:57;4.43;;;2.70;;
8066;SDS011;4076;48.076;9.118;2023-03-23T16:42:23;3.50;;;1.80;;
8066;SDS011;4076;48.076;9.118;2023-03-23T16:44:48;4.27;;;2.40;;
8066;SDS011;4076;48.076;9.118;2023-03-23T16:47:15;4.23;;;2.43;;
8066;SDS011;4076;48.076;9.118;2023-03-23T16:49:42;4.13;;;3.00;;
8066;SDS011;4076;48.076;9.118;2023-03-23T16:52:08;4.67;;;2.27;;
8066;SDS011;4076;48.076;9.118;2023-03-23T16:54:34;4.40;;;2.30;;
8066;SDS011;4076;48.076;9.118;2023-03-23T16:57:00;5.83;;;2.33;;
8066;SDS011;4076;48.076;9.118;2023-03-23T16:59:26;3.83;;;1.97;;
8066;SDS011;4076;48.076;9.118;2023-03-23T17:01:53;4.97;;;2.50;;
8066;SDS011;4076;48.076;9.118;2023-03-23T17:04:18;4.30;;;2.97;;
8066;SDS011;4076;48.076;9.118;2023-03-23T17:06:44;4.77;;;2.40;;
8066;SDS011;4076;48.076;9.118;2023-03-23T17:09:10;4.97;;;2.90;;
8066;SDS011;4076;48.076;9.118;2023-03-23T17:11:36;3.50;;;2.03;;
8066;SDS011;4076;48.076;9.118;2023-03-23T17:14:02;3.90;;;2.63;;
8066;SDS011;4076;48.076;9.118;2023-03-23T17:16:27;6.10;;;2.47;;
8066;SDS011;4076;48.076;9.118;2023-03-23T17:18:53;3.93;;;2.40;;
8066;SDS011;4076;48.076;9.118;2023-03-23T17:21:18;3.47;;;2.07;;
8066;SDS011;4076;48.076;9.118;2023-03-23T17:23:49;3.10;;;1.90;;
8066;SDS011;4076;48.076;9.118;2023-03-23T17:26:15;4.90;;;1.77;;
8066;SDS011;4076;48.076;9.118;2023-03-23T17:28:40;3.37;;;2.10;;
8066;SDS011;4076;48.076;9.118;2023-03-23T17:31:06;4.30;;;2.37;;
8066;SDS011;4076;48.076;9.118;2023-03-23T17:33:31;6.17;;;1.90;;
8066;SDS011;4076;48.076;9.118;2023-03-23T17:35:57;4.60;;;2.33;;